sensor_id;sensor_type;location;lat;lon;timestamp;P1;durP1;ratioP1;P2;durP2;ratioP2
8254;SDS011;4167;48.162;11.542;2023-04-16T00:02:15;394.17;;;110.70;;
8254;SDS011;4167;48.162;11.542;2023-04-16T00:04:41;413.23;;;113.47;;
8254;SDS011;4167;48.162;11.542;2023-04-16T00:07:08;497.57;;;118.00;;
8254;SDS011;4167;48.162;11.542;2023-04-16T00:09:34;416.00;;;117.13;;
8254;SDS011;4167;48.162;11.542;2023-04-16T00:12:01;489.87;;;121.83;;
8254;SDS011;4167;48.162;11.542;2023-04-16T00:14:29;444.43;;;114.47;;
8254;SDS011;4167;48.162;11.542;2023-04-16T00:16:55;400.33;;;110.67;;
8254;SDS011;4167;48.162;11.542;2023-04-16T00:19:22;444.93;;;114.43;;
8254;SDS011;4167;48.162;11.542;2023-04-16T00:21:48;425.87;;;121.67;;
8254;SDS011;4167;48.162;11.542;2023-04-16T00:24:15;582.03;;;126.67;;
8254;SDS011;4167;48.162;11.542;2023-04-16T00:26:41;420.13;;;116.73;;
8254;SDS011;4167;48.162;11.542;2023-04-16T00:29:09;417.43;;;112.63;;
8254;SDS011;4167;48.162;11.542;2023-04-16T00:31:36;454.97;;;115.03;;
8254;SDS011;4167;48.162;11.542;2023-04-16T00:34:03;583.60;;;126.03;;
8254;SDS011;4167;48.162;11.542;2023-04-16T00:36:29;384.17;;;114.40;;
8254;SDS011;4167;48.162;11.542;2023-04-16T00:38:56;370.90;;;110.77;;
8254;SDS011;4167;48.162;11.542;2023-04-16T00:41:22;359.97;;;110.83;;
8254;SDS011;4167;48.162;11.542;2023-04-16T00:43:49;439.47;;;119.70;;
8254;SDS011;4167;48.162;11.542;2023-04-16T00:46:15;546.97;;;127.30;;
8254;SDS011;4167;48.162;11.542;2023-04-16T00:48:43;375.50;;;122.67;;
8254;SDS011;4167;48.162;11.542;2023-04-16T00:51:10;419.23;;;119.20;;
8254;SDS011;4167;48.162;11.542;2023-04-16T00:53:37;393.27;;;122.00;;
8254;SDS011;4167;48.162;11.542;2023-04-16T00:56:04;444.13;;;129.13;;
8254;SDS011;4167;48.162;11.542;2023-04-16T00:58:32;395.83;;;124.73;;
8254;SDS011;4167;48.162;11.542;2023-04-16T01:00:59;564.77;;;142.47;;
8254;SDS011;4167;48.162;11.542;2023-04-16T01:03:27;327.60;;;118.63;;
8254;SDS011;4167;48.162;11.542;2023-04-16T01:06:01;467.07;;;127.37;;
8254;SDS011;4167;48.162;11.542;2023-04-16T01:08:27;380.10;;;120.70;;
8254;SDS011;4167;48.162;11.542;2023-04-16T01:10:54;350.60;;;116.33;;
8254;SDS011;4167;48.162;11.542;2023-04-16T01:13:21;391.27;;;120.43;;
8254;SDS011;4167;48.162;11.542;2023-04-16T01:15:47;434.77;;;120.00;;
8254;SDS011;4167;48.162;11.542;2023-04-16T01:18:14;519.03;;;133.00;;
8254;SDS011;4167;48.162;11.542;2023-04-16T01:20:42;334.30;;;113.30;;
8254;SDS011;4167;48.162;11.542;2023-04-16T01:23:08;426.40;;;115.00;;
8254;SDS011;4167;48.162;11.542;2023-04-16T01:25:35;401.47;;;115.73;;
8254;SDS011;4167;48.162;11.542;2023-04-16T01:28:02;490.37;;;129.50;;
8254;SDS011;4167;48.162;11.542;2023-04-16T01:30:28;493.40;;;130.50;;
8254;SDS011;4167;48.162;11.542;2023-04-16T01:32:55;323.40;;;113.80;;
8254;SDS011;4167;48.162;11.542;2023-04-16T01:35:22;363.70;;;115.97;;
8254;SDS011;4167;48.162;11.542;2023-04-16T01:37:50;469.40;;;126.97;;
8254;SDS011;4167;48.162;11.542;2023-04-16T01:40:16;471.93;;;129.07;;
8254;SDS011;4167;48.162;11.542;2023-04-16T01:42:43;601.70;;;148.73;;
8254;SDS011;4167;48.162;11.542;2023-04-16T01:45:10;602.33;;;146.43;;
8254;SDS011;4167;48.162;11.542;2023-04-16T01:47:36;364.13;;;120.47;;
8254;SDS011;4167;48.162;11.542;2023-04-16T01:50:03;555.20;;;137.03;;
8254;SDS011;4167;48.162;11.542;2023-04-16T01:52:30;467.07;;;126.23;;
8254;SDS011;4167;48.162;11.542;2023-04-16T01:54:58;424.40;;;127.00;;
8254;SDS011;4167;48.162;11.542;2023-04-16T01:57:24;347.17;;;120.53;;
8254;SDS011;4167;48.162;11.542;2023-04-16T01:59:51;472.83;;;133.53;;
8254;SDS011;4167;48.162;11.542;2023-04-16T02:02:17;384.17;;;118.40;;
8254;SDS011;4167;48.162;11.542;2023-04-16T02:04:44;494.43;;;129.47;;
8254;SDS011;4167;48.162;11.542;2023-04-16T02:07:11;453.07;;;120.93;;
8254;SDS011;4167;48.162;11.542;2023-04-16T02:09:38;381.80;;;120.87;;
8254;SDS011;4167;48.162;11.542;2023-04-16T02:12:06;556.37;;;132.00;;
8254;SDS011;4167;48.162;11.542;2023-04-16T02:14:35;537.20;;;139.37;;
8254;SDS011;4167;48.162;11.542;2023-04-16T02:17:01;462.90;;;128.90;;
8254;SDS011;4167;48.162;11.542;2023-04-16T02:19:28;378.17;;;122.07;;
8254;SDS011;4167;48.162;11.542;2023-04-16T02:21:54;528.17;;;131.47;;
8254;SDS011;4167;48.162;11.542;2023-04-16T02:24:21;513.17;;;132.73;;
8254;SDS011;4167;48.162;11.542;2023-04-16T02:26:47;368.33;;;125.27;;
8254;SDS011;4167;48.162;11.542;2023-04-16T02:29:15;524.10;;;136.37;;
8254;SDS011;4167;48.162;11.542;2023-04-16T02:31:41;335.93;;;121.63;;
8254;SDS011;4167;48.162;11.542;2023-04-16T02:34:08;573.23;;;135.90;;
8254;SDS011;4167;48.162;11.542;2023-04-16T02:36:34;423.07;;;123.87;;
8254;SDS011;4167;48.162;11.542;2023-04-16T02:39:01;471.50;;;128.50;;
8254;SDS011;4167;48.162;11.542;2023-04-16T02:41:27;350.77;;;114.80;;
8254;SDS011;4167;48.162;11.542;2023-04-16T02:43:54;415.43;;;124.47;;
8254;SDS011;4167;48.162;11.542;2023-04-16T02:46:22;444.60;;;123.70;;
8254;SDS011;4167;48.162;11.542;2023-04-16T02:48:48;393.97;;;122.73;;
8254;SDS011;4167;48.162;11.542;2023-04-16T02:51:15;478.87;;;127.87;;
8254;SDS011;4167;48.162;11.542;2023-04-16T02:53:41;467.57;;;126.00;;
8254;SDS011;4167;48.162;11.542;2023-04-16T02:56:10;424.97;;;123.03;;
8254;SDS011;4167;48.162;11.542;2023-04-16T02:58:37;374.83;;;118.17;;
8254;SDS011;4167;48.162;11.542;2023-04-16T03:01:03;474.87;;;128.17;;
8254;SDS011;4167;48.162;11.542;2023-04-16T03:03:31;438.67;;;127.23;;
8254;SDS011;4167;48.162;11.542;2023-04-16T03:05:57;279.40;;;112.07;;
8254;SDS011;4167;48.162;11.542;2023-04-16T03:08:24;279.40;;;110.10;;
8254;SDS011;4167;48.162;11.542;2023-04-16T03:10:51;319.57;;;111.27;;
8254;SDS011;4167;48.162;11.542;2023-04-16T03:13:17;252.10;;;110.70;;
8254;SDS011;4167;48.162;11.542;2023-04-16T03:15:46;290.67;;;112.33;;
8254;SDS011;4167;48.162;11.542;2023-04-16T03:18:13;358.37;;;123.70;;
8254;SDS011;4167;48.162;11.542;2023-04-16T03:20:41;316.20;;;112.33;;
8254;SDS011;4167;48.162;11.542;2023-04-16T03:23:08;272.10;;;109.63;;
8254;SDS011;4167;48.162;11.542;2023-04-16T03:25:34;286.50;;;118.53;;
8254;SDS011;4167;48.162;11.542;2023-04-16T03:28:01;257.20;;;109.40;;
8254;SDS011;4167;48.162;11.542;2023-04-16T03:30:28;279.20;;;115.20;;
8254;SDS011;4167;48.162;11.542;2023-04-16T03:32:54;273.77;;;103.00;;
8254;SDS011;4167;48.162;11.542;2023-04-16T03:35:20;310.23;;;109.03;;
8254;SDS011;4167;48.162;11.542;2023-04-16T03:37:48;282.27;;;103.23;;
8254;SDS011;4167;48.162;11.542;2023-04-16T03:40:15;284.03;;;103.90;;
8254;SDS011;4167;48.162;11.542;2023-04-16T03:42:42;279.33;;;105.40;;
8254;SDS011;4167;48.162;11.542;2023-04-16T03:45:09;372.53;;;110.43;;
8254;SDS011;4167;48.162;11.542;2023-04-16T03:47:36;287.37;;;102.80;;
8254;SDS011;4167;48.162;11.542;2023-04-16T03:50:02;301.43;;;104.20;;
8254;SDS011;4167;48.162;11.542;2023-04-16T03:52:29;274.23;;;104.83;;
8254;SDS011;4167;48.162;11.542;2023-04-16T03:54:57;296.57;;;107.87;;
8254;SDS011;4167;48.162;11.542;2023-04-16T03:57:23;240.23;;;96.83;;
8254;SDS011;4167;48.162;11.542;2023-04-16T03:59:50;333.47;;;107.10;;
8254;SDS011;4167;48.162;11.542;2023-04-16T04:02:16;296.33;;;101.67;;
8254;SDS011;4167;48.162;11.542;2023-04-16T04:04:43;261.97;;;102.23;;
8254;SDS011;4167;48.162;11.542;2023-04-16T04:07:09;337.00;;;108.87;;
8254;SDS011;4167;48.162;11.542;2023-04-16T04:09:36;249.47;;;98.67;;
8254;SDS011;4167;48.162;11.542;2023-04-16T04:12:04;256.53;;;99.93;;
8254;SDS011;4167;48.162;11.542;2023-04-16T04:14:31;309.63;;;103.10;;
8254;SDS011;4167;48.162;11.542;2023-04-16T04:16:57;268.20;;;98.57;;
8254;SDS011;4167;48.162;11.542;2023-04-16T04:19:23;288.83;;;104.57;;
8254;SDS011;4167;48.162;11.542;2023-04-16T04:21:50;254.20;;;99.50;;
8254;SDS011;4167;48.162;11.542;2023-04-16T04:24:16;383.30;;;116.63;;
8254;SDS011;4167;48.162;11.542;2023-04-16T04:26:43;304.20;;;105.37;;
8254;SDS011;4167;48.162;11.542;2023-04-16T04:29:11;411.37;;;113.23;;
8254;SDS011;4167;48.162;11.542;2023-04-16T04:31:38;366.43;;;111.63;;
8254;SDS011;4167;48.162;11.542;2023-04-16T04:34:05;314.17;;;111.17;;
8254;SDS011;4167;48.162;11.542;2023-04-16T04:36:32;295.13;;;104.13;;
8254;SDS011;4167;48.162;11.542;2023-04-16T04:38:58;327.10;;;112.70;;
8254;SDS011;4167;48.162;11.542;2023-04-16T04:41:25;307.27;;;106.93;;
8254;SDS011;4167;48.162;11.542;2023-04-16T04:43:51;373.63;;;114.10;;
8254;SDS011;4167;48.162;11.542;2023-04-16T04:46:19;348.10;;;112.60;;
8254;SDS011;4167;48.162;11.542;2023-04-16T04:48:46;330.97;;;109.83;;
8254;SDS011;4167;48.162;11.542;2023-04-16T04:51:12;305.87;;;108.37;;
8254;SDS011;4167;48.162;11.542;2023-04-16T04:53:39;304.73;;;107.37;;
8254;SDS011;4167;48.162;11.542;2023-04-16T04:56:06;309.90;;;110.20;;
8254;SDS011;4167;48.162;11.542;2023-04-16T04:58:33;279.73;;;105.97;;
8254;SDS011;4167;48.162;11.542;2023-04-16T05:00:59;299.53;;;104.57;;
8254;SDS011;4167;48.162;11.542;2023-04-16T05:03:27;237.10;;;100.27;;
8254;SDS011;4167;48.162;11.542;2023-04-16T05:05:53;275.57;;;99.97;;
8254;SDS011;4167;48.162;11.542;2023-04-16T05:08:20;273.37;;;96.67;;
8254;SDS011;4167;48.162;11.542;2023-04-16T05:10:47;259.10;;;98.13;;
8254;SDS011;4167;48.162;11.542;2023-04-16T05:13:13;287.40;;;100.47;;
8254;SDS011;4167;48.162;11.542;2023-04-16T05:15:39;294.93;;;102.10;;
8254;SDS011;4167;48.162;11.542;2023-04-16T05:18:06;322.93;;;109.13;;
8254;SDS011;4167;48.162;11.542;2023-04-16T05:20:34;297.33;;;102.73;;
8254;SDS011;4167;48.162;11.542;2023-04-16T05:23:01;261.60;;;99.23;;
8254;SDS011;4167;48.162;11.542;2023-04-16T05:25:28;245.37;;;94.73;;
8254;SDS011;4167;48.162;11.542;2023-04-16T05:27:54;413.87;;;113.03;;
8254;SDS011;4167;48.162;11.542;2023-04-16T05:30:21;229.37;;;93.50;;
8254;SDS011;4167;48.162;11.542;2023-04-16T05:32:47;290.30;;;101.43;;
8254;SDS011;4167;48.162;11.542;2023-04-16T05:35:14;329.60;;;103.10;;
8254;SDS011;4167;48.162;11.542;2023-04-16T05:37:42;307.77;;;102.90;;
8254;SDS011;4167;48.162;11.542;2023-04-16T05:40:08;317.43;;;99.47;;
8254;SDS011;4167;48.162;11.542;2023-04-16T05:42:37;296.73;;;100.43;;
8254;SDS011;4167;48.162;11.542;2023-04-16T05:45:03;348.90;;;105.20;;
8254;SDS011;4167;48.162;11.542;2023-04-16T05:47:31;226.13;;;93.47;;
8254;SDS011;4167;48.162;11.542;2023-04-16T05:49:57;303.20;;;102.50;;
8254;SDS011;4167;48.162;11.542;2023-04-16T05:52:24;321.00;;;101.40;;
8254;SDS011;4167;48.162;11.542;2023-04-16T05:54:52;282.27;;;98.60;;
8254;SDS011;4167;48.162;11.542;2023-04-16T05:57:18;252.50;;;96.73;;
8254;SDS011;4167;48.162;11.542;2023-04-16T05:59:45;257.47;;;96.73;;
8254;SDS011;4167;48.162;11.542;2023-04-16T06:02:11;358.53;;;106.30;;
8254;SDS011;4167;48.162;11.542;2023-04-16T06:04:38;272.07;;;96.60;;
8254;SDS011;4167;48.162;11.542;2023-04-16T06:07:04;281.17;;;97.53;;
8254;SDS011;4167;48.162;11.542;2023-04-16T06:09:32;175.40;;;83.00;;
8254;SDS011;4167;48.162;11.542;2023-04-16T06:12:07;464.97;;;113.60;;
8254;SDS011;4167;48.162;11.542;2023-04-16T06:14:34;357.77;;;102.50;;
8254;SDS011;4167;48.162;11.542;2023-04-16T06:17:01;338.73;;;98.60;;
8254;SDS011;4167;48.162;11.542;2023-04-16T06:19:27;483.53;;;119.37;;
8254;SDS011;4167;48.162;11.542;2023-04-16T06:21:54;314.30;;;96.67;;
8254;SDS011;4167;48.162;11.542;2023-04-16T06:24:20;383.60;;;102.80;;
8254;SDS011;4167;48.162;11.542;2023-04-16T06:26:47;343.17;;;101.13;;
8254;SDS011;4167;48.162;11.542;2023-04-16T06:29:14;341.93;;;100.93;;
8254;SDS011;4167;48.162;11.542;2023-04-16T06:31:41;353.83;;;99.73;;
8254;SDS011;4167;48.162;11.542;2023-04-16T06:34:07;455.47;;;107.83;;
8254;SDS011;4167;48.162;11.542;2023-04-16T06:36:34;323.90;;;97.47;;
8254;SDS011;4167;48.162;11.542;2023-04-16T06:39:01;398.67;;;103.33;;
8254;SDS011;4167;48.162;11.542;2023-04-16T06:41:28;301.80;;;98.13;;
8254;SDS011;4167;48.162;11.542;2023-04-16T06:43:55;397.60;;;110.93;;
8254;SDS011;4167;48.162;11.542;2023-04-16T06:46:23;316.57;;;97.13;;
8254;SDS011;4167;48.162;11.542;2023-04-16T06:48:49;326.23;;;97.43;;
8254;SDS011;4167;48.162;11.542;2023-04-16T06:51:16;375.13;;;102.13;;
8254;SDS011;4167;48.162;11.542;2023-04-16T06:53:42;395.90;;;105.37;;
8254;SDS011;4167;48.162;11.542;2023-04-16T06:56:09;334.10;;;99.93;;
8254;SDS011;4167;48.162;11.542;2023-04-16T06:58:35;314.33;;;96.53;;
8254;SDS011;4167;48.162;11.542;2023-04-16T07:01:02;392.43;;;103.33;;
8254;SDS011;4167;48.162;11.542;2023-04-16T07:03:30;376.07;;;100.97;;
8254;SDS011;4167;48.162;11.542;2023-04-16T07:05:56;345.27;;;101.17;;
8254;SDS011;4167;48.162;11.542;2023-04-16T07:08:23;294.40;;;96.73;;
8254;SDS011;4167;48.162;11.542;2023-04-16T07:10:49;366.33;;;105.37;;
8254;SDS011;4167;48.162;11.542;2023-04-16T07:13:17;314.70;;;95.37;;
8254;SDS011;4167;48.162;11.542;2023-04-16T07:15:44;340.27;;;98.93;;
8254;SDS011;4167;48.162;11.542;2023-04-16T07:18:10;353.93;;;103.53;;
8254;SDS011;4167;48.162;11.542;2023-04-16T07:20:38;313.50;;;97.83;;
8254;SDS011;4167;48.162;11.542;2023-04-16T07:23:05;465.70;;;113.27;;
8254;SDS011;4167;48.162;11.542;2023-04-16T07:25:31;427.87;;;112.77;;
8254;SDS011;4167;48.162;11.542;2023-04-16T07:27:58;405.47;;;108.77;;
8254;SDS011;4167;48.162;11.542;2023-04-16T07:30:24;348.80;;;103.27;;
8254;SDS011;4167;48.162;11.542;2023-04-16T07:32:56;367.90;;;104.27;;
8254;SDS011;4167;48.162;11.542;2023-04-16T07:35:23;304.13;;;102.97;;
8254;SDS011;4167;48.162;11.542;2023-04-16T07:37:51;487.10;;;117.20;;
8254;SDS011;4167;48.162;11.542;2023-04-16T07:40:17;399.63;;;108.43;;
8254;SDS011;4167;48.162;11.542;2023-04-16T07:42:44;353.27;;;103.50;;
8254;SDS011;4167;48.162;11.542;2023-04-16T07:45:10;473.30;;;112.90;;
8254;SDS011;4167;48.162;11.542;2023-04-16T07:47:37;502.27;;;112.90;;
8254;SDS011;4167;48.162;11.542;2023-04-16T07:50:03;439.50;;;110.60;;
8254;SDS011;4167;48.162;11.542;2023-04-16T07:52:31;372.10;;;102.90;;
8254;SDS011;4167;48.162;11.542;2023-04-16T07:54:59;388.40;;;106.90;;
8254;SDS011;4167;48.162;11.542;2023-04-16T07:57:25;298.40;;;102.27;;
8254;SDS011;4167;48.162;11.542;2023-04-16T07:59:52;327.87;;;104.37;;
8254;SDS011;4167;48.162;11.542;2023-04-16T08:02:18;342.00;;;105.17;;
8254;SDS011;4167;48.162;11.542;2023-04-16T08:04:44;352.70;;;108.97;;
8254;SDS011;4167;48.162;11.542;2023-04-16T08:07:11;397.93;;;109.00;;
8254;SDS011;4167;48.162;11.542;2023-04-16T08:09:45;347.53;;;101.23;;
8254;SDS011;4167;48.162;11.542;2023-04-16T08:12:13;357.20;;;96.63;;
8254;SDS011;4167;48.162;11.542;2023-04-16T08:14:41;431.53;;;104.10;;
8254;SDS011;4167;48.162;11.542;2023-04-16T08:17:07;419.83;;;100.57;;
8254;SDS011;4167;48.162;11.542;2023-04-16T08:19:34;392.33;;;99.20;;
8254;SDS011;4167;48.162;11.542;2023-04-16T08:22:01;329.97;;;93.57;;
8254;SDS011;4167;48.162;11.542;2023-04-16T08:24:27;494.90;;;107.27;;
8254;SDS011;4167;48.162;11.542;2023-04-16T08:26:54;385.00;;;100.60;;
8254;SDS011;4167;48.162;11.542;2023-04-16T08:29:21;344.07;;;94.87;;
8254;SDS011;4167;48.162;11.542;2023-04-16T08:31:50;411.03;;;101.53;;
8254;SDS011;4167;48.162;11.542;2023-04-16T08:34:16;613.50;;;119.10;;
8254;SDS011;4167;48.162;11.542;2023-04-16T08:36:43;364.27;;;96.90;;
8254;SDS011;4167;48.162;11.542;2023-04-16T08:39:10;512.23;;;109.60;;
8254;SDS011;4167;48.162;11.542;2023-04-16T08:41:37;413.67;;;100.57;;
8254;SDS011;4167;48.162;11.542;2023-04-16T08:44:05;392.47;;;101.53;;
8254;SDS011;4167;48.162;11.542;2023-04-16T08:46:35;310.13;;;86.77;;
8254;SDS011;4167;48.162;11.542;2023-04-16T08:49:03;373.50;;;91.50;;
8254;SDS011;4167;48.162;11.542;2023-04-16T08:51:33;377.30;;;91.83;;
8254;SDS011;4167;48.162;11.542;2023-04-16T08:54:01;352.57;;;89.67;;
8254;SDS011;4167;48.162;11.542;2023-04-16T08:56:29;409.60;;;97.43;;
8254;SDS011;4167;48.162;11.542;2023-04-16T08:58:57;347.50;;;93.07;;
8254;SDS011;4167;48.162;11.542;2023-04-16T09:01:25;383.07;;;99.43;;
8254;SDS011;4167;48.162;11.542;2023-04-16T09:03:54;362.60;;;96.00;;
8254;SDS011;4167;48.162;11.542;2023-04-16T09:06:20;372.80;;;96.30;;
8254;SDS011;4167;48.162;11.542;2023-04-16T09:08:47;436.70;;;101.27;;
8254;SDS011;4167;48.162;11.542;2023-04-16T09:11:15;473.67;;;106.33;;
8254;SDS011;4167;48.162;11.542;2023-04-16T09:13:42;339.40;;;93.03;;
8254;SDS011;4167;48.162;11.542;2023-04-16T09:16:09;449.70;;;104.40;;
8254;SDS011;4167;48.162;11.542;2023-04-16T09:18:36;272.30;;;83.83;;
8254;SDS011;4167;48.162;11.542;2023-04-16T09:21:04;391.80;;;96.63;;
8254;SDS011;4167;48.162;11.542;2023-04-16T09:23:31;320.80;;;88.03;;
8254;SDS011;4167;48.162;11.542;2023-04-16T09:25:58;260.87;;;84.20;;
8254;SDS011;4167;48.162;11.542;2023-04-16T09:28:37;607.17;;;113.03;;
8254;SDS011;4167;48.162;11.542;2023-04-16T09:31:08;347.80;;;92.87;;
8254;SDS011;4167;48.162;11.542;2023-04-16T09:33:35;279.13;;;89.40;;
8254;SDS011;4167;48.162;11.542;2023-04-16T09:36:04;400.63;;;98.73;;
8254;SDS011;4167;48.162;11.542;2023-04-16T09:38:46;356.50;;;94.17;;
8254;SDS011;4167;48.162;11.542;2023-04-16T09:41:13;342.90;;;92.50;;
8254;SDS011;4167;48.162;11.542;2023-04-16T09:43:41;308.07;;;90.57;;
8254;SDS011;4167;48.162;11.542;2023-04-16T09:46:14;416.83;;;96.90;;
8254;SDS011;4167;48.162;11.542;2023-04-16T09:48:41;457.30;;;99.40;;
8254;SDS011;4167;48.162;11.542;2023-04-16T09:51:12;365.23;;;94.33;;
8254;SDS011;4167;48.162;11.542;2023-04-16T09:53:38;287.10;;;87.20;;
8254;SDS011;4167;48.162;11.542;2023-04-16T09:56:05;368.73;;;95.10;;
8254;SDS011;4167;48.162;11.542;2023-04-16T09:58:34;570.37;;;113.23;;
8254;SDS011;4167;48.162;11.542;2023-04-16T10:01:01;424.27;;;99.40;;
8254;SDS011;4167;48.162;11.542;2023-04-16T10:03:28;327.23;;;91.10;;
8254;SDS011;4167;48.162;11.542;2023-04-16T10:05:57;429.67;;;102.20;;
8254;SDS011;4167;48.162;11.542;2023-04-16T10:08:26;286.40;;;86.33;;
8254;SDS011;4167;48.162;11.542;2023-04-16T10:10:53;404.73;;;99.40;;
8254;SDS011;4167;48.162;11.542;2023-04-16T10:13:21;333.13;;;90.37;;
8254;SDS011;4167;48.162;11.542;2023-04-16T10:15:49;541.47;;;124.43;;
8254;SDS011;4167;48.162;11.542;2023-04-16T10:18:16;327.73;;;98.23;;
8254;SDS011;4167;48.162;11.542;2023-04-16T10:20:43;298.93;;;92.43;;
8254;SDS011;4167;48.162;11.542;2023-04-16T10:23:10;415.93;;;105.23;;
8254;SDS011;4167;48.162;11.542;2023-04-16T10:25:38;394.40;;;100.17;;
8254;SDS011;4167;48.162;11.542;2023-04-16T10:28:06;435.90;;;101.13;;
8254;SDS011;4167;48.162;11.542;2023-04-16T10:30:32;339.77;;;94.00;;
8254;SDS011;4167;48.162;11.542;2023-04-16T10:32:59;431.53;;;101.93;;
8254;SDS011;4167;48.162;11.542;2023-04-16T10:35:27;334.30;;;94.07;;
8254;SDS011;4167;48.162;11.542;2023-04-16T10:37:55;367.50;;;98.17;;
8254;SDS011;4167;48.162;11.542;2023-04-16T10:40:22;385.77;;;96.90;;
8254;SDS011;4167;48.162;11.542;2023-04-16T10:42:57;332.90;;;94.17;;
8254;SDS011;4167;48.162;11.542;2023-04-16T10:45:26;407.37;;;101.93;;
8254;SDS011;4167;48.162;11.542;2023-04-16T10:47:56;328.20;;;91.63;;
8254;SDS011;4167;48.162;11.542;2023-04-16T10:50:23;320.60;;;89.13;;
8254;SDS011;4167;48.162;11.542;2023-04-16T10:53:02;413.03;;;101.10;;
8254;SDS011;4167;48.162;11.542;2023-04-16T10:55:54;307.70;;;90.73;;
8254;SDS011;4167;48.162;11.542;2023-04-16T10:58:29;357.53;;;93.80;;
8254;SDS011;4167;48.162;11.542;2023-04-16T11:00:58;323.93;;;93.67;;
8254;SDS011;4167;48.162;11.542;2023-04-16T11:03:25;377.87;;;97.00;;
8254;SDS011;4167;48.162;11.542;2023-04-16T11:06:08;387.73;;;97.53;;
8254;SDS011;4167;48.162;11.542;2023-04-16T11:08:36;373.03;;;97.47;;
8254;SDS011;4167;48.162;11.542;2023-04-16T11:11:03;406.13;;;99.03;;
8254;SDS011;4167;48.162;11.542;2023-04-16T11:13:31;383.47;;;97.20;;
8254;SDS011;4167;48.162;11.542;2023-04-16T11:15:58;315.30;;;91.30;;
8254;SDS011;4167;48.162;11.542;2023-04-16T11:18:26;345.93;;;94.73;;
8254;SDS011;4167;48.162;11.542;2023-04-16T11:20:52;443.83;;;102.43;;
8254;SDS011;4167;48.162;11.542;2023-04-16T11:23:19;404.53;;;100.23;;
8254;SDS011;4167;48.162;11.542;2023-04-16T11:25:45;334.63;;;91.97;;
8254;SDS011;4167;48.162;11.542;2023-04-16T11:28:12;326.53;;;89.83;;
8254;SDS011;4167;48.162;11.542;2023-04-16T11:30:39;307.93;;;87.00;;
8254;SDS011;4167;48.162;11.542;2023-04-16T11:33:06;408.03;;;94.80;;
8254;SDS011;4167;48.162;11.542;2023-04-16T11:35:33;442.17;;;96.10;;
8254;SDS011;4167;48.162;11.542;2023-04-16T11:38:00;363.43;;;90.23;;
8254;SDS011;4167;48.162;11.542;2023-04-16T11:40:28;355.93;;;88.47;;
8254;SDS011;4167;48.162;11.542;2023-04-16T11:42:55;404.97;;;97.13;;
8254;SDS011;4167;48.162;11.542;2023-04-16T11:45:26;315.87;;;90.37;;
8254;SDS011;4167;48.162;11.542;2023-04-16T11:47:54;351.90;;;93.70;;
8254;SDS011;4167;48.162;11.542;2023-04-16T11:50:22;376.27;;;98.13;;
8254;SDS011;4167;48.162;11.542;2023-04-16T11:52:50;346.70;;;94.13;;
8254;SDS011;4167;48.162;11.542;2023-04-16T11:55:17;399.93;;;99.33;;
8254;SDS011;4167;48.162;11.542;2023-04-16T11:57:44;265.97;;;88.50;;
8254;SDS011;4167;48.162;11.542;2023-04-16T12:00:11;419.17;;;104.37;;
8254;SDS011;4167;48.162;11.542;2023-04-16T12:02:39;391.63;;;100.63;;
8254;SDS011;4167;48.162;11.542;2023-04-16T12:07:52;484.23;;;109.40;;
8254;SDS011;4167;48.162;11.542;2023-04-16T12:10:19;352.00;;;102.83;;
8254;SDS011;4167;48.162;11.542;2023-04-16T12:12:45;408.37;;;101.90;;
8254;SDS011;4167;48.162;11.542;2023-04-16T12:15:12;470.07;;;108.07;;
8254;SDS011;4167;48.162;11.542;2023-04-16T12:17:38;322.93;;;91.93;;
8254;SDS011;4167;48.162;11.542;2023-04-16T12:20:07;509.40;;;111.67;;
8254;SDS011;4167;48.162;11.542;2023-04-16T12:22:36;339.87;;;94.87;;
8254;SDS011;4167;48.162;11.542;2023-04-16T12:25:04;500.47;;;112.73;;
8254;SDS011;4167;48.162;11.542;2023-04-16T12:27:41;362.53;;;98.27;;
8254;SDS011;4167;48.162;11.542;2023-04-16T12:30:09;469.83;;;108.03;;
8254;SDS011;4167;48.162;11.542;2023-04-16T12:32:36;434.57;;;107.40;;
8254;SDS011;4167;48.162;11.542;2023-04-16T12:35:03;492.17;;;112.73;;
8254;SDS011;4167;48.162;11.542;2023-04-16T12:37:30;533.73;;;117.27;;
8254;SDS011;4167;48.162;11.542;2023-04-16T12:39:58;399.97;;;107.37;;
8254;SDS011;4167;48.162;11.542;2023-04-16T12:42:24;457.93;;;116.93;;
8254;SDS011;4167;48.162;11.542;2023-04-16T12:44:51;291.00;;;97.30;;
8254;SDS011;4167;48.162;11.542;2023-04-16T12:47:17;338.07;;;98.20;;
8254;SDS011;4167;48.162;11.542;2023-04-16T12:49:44;289.33;;;92.80;;
8254;SDS011;4167;48.162;11.542;2023-04-16T12:52:10;450.63;;;108.27;;
8254;SDS011;4167;48.162;11.542;2023-04-16T12:54:38;563.27;;;119.83;;
8254;SDS011;4167;48.162;11.542;2023-04-16T12:57:06;568.90;;;117.83;;
8254;SDS011;4167;48.162;11.542;2023-04-16T12:59:33;362.87;;;101.93;;
8254;SDS011;4167;48.162;11.542;2023-04-16T13:01:59;390.87;;;102.40;;
8254;SDS011;4167;48.162;11.542;2023-04-16T13:04:26;425.50;;;105.20;;
8254;SDS011;4167;48.162;11.542;2023-04-16T13:06:52;404.60;;;106.40;;
8254;SDS011;4167;48.162;11.542;2023-04-16T13:09:19;379.27;;;107.17;;
8254;SDS011;4167;48.162;11.542;2023-04-16T13:11:45;380.40;;;104.07;;
8254;SDS011;4167;48.162;11.542;2023-04-16T13:14:13;482.63;;;113.93;;
8254;SDS011;4167;48.162;11.542;2023-04-16T13:16:40;386.90;;;109.40;;
8254;SDS011;4167;48.162;11.542;2023-04-16T13:19:06;441.07;;;108.37;;
8254;SDS011;4167;48.162;11.542;2023-04-16T13:21:33;382.07;;;105.23;;
8254;SDS011;4167;48.162;11.542;2023-04-16T13:23:59;448.43;;;112.77;;
8254;SDS011;4167;48.162;11.542;2023-04-16T13:26:26;402.33;;;106.13;;
8254;SDS011;4167;48.162;11.542;2023-04-16T13:28:52;536.07;;;121.07;;
8254;SDS011;4167;48.162;11.542;2023-04-16T13:31:20;469.47;;;113.00;;
8254;SDS011;4167;48.162;11.542;2023-04-16T13:33:47;434.40;;;110.77;;
8254;SDS011;4167;48.162;11.542;2023-04-16T13:36:13;495.20;;;116.43;;
8254;SDS011;4167;48.162;11.542;2023-04-16T13:38:40;345.43;;;102.60;;
8254;SDS011;4167;48.162;11.542;2023-04-16T13:41:06;442.83;;;116.97;;
8254;SDS011;4167;48.162;11.542;2023-04-16T13:43:33;429.80;;;104.90;;
8254;SDS011;4167;48.162;11.542;2023-04-16T13:45:59;530.87;;;115.93;;
8254;SDS011;4167;48.162;11.542;2023-04-16T13:48:27;423.40;;;107.70;;
8254;SDS011;4167;48.162;11.542;2023-04-16T13:50:54;386.97;;;108.03;;
8254;SDS011;4167;48.162;11.542;2023-04-16T13:53:20;390.20;;;109.67;;
8254;SDS011;4167;48.162;11.542;2023-04-16T13:55:47;374.60;;;106.40;;
8254;SDS011;4167;48.162;11.542;2023-04-16T13:58:13;413.37;;;112.33;;
8254;SDS011;4167;48.162;11.542;2023-04-16T14:00:40;409.10;;;108.73;;
8254;SDS011;4167;48.162;11.542;2023-04-16T14:03:07;617.93;;;131.57;;
8254;SDS011;4167;48.162;11.542;2023-04-16T14:05:34;382.93;;;104.13;;
8254;SDS011;4167;48.162;11.542;2023-04-16T14:08:01;448.20;;;113.87;;
8254;SDS011;4167;48.162;11.542;2023-04-16T14:10:27;324.93;;;101.97;;
8254;SDS011;4167;48.162;11.542;2023-04-16T14:12:54;527.27;;;128.70;;
8254;SDS011;4167;48.162;11.542;2023-04-16T14:15:20;458.63;;;117.27;;
8254;SDS011;4167;48.162;11.542;2023-04-16T14:17:47;368.87;;;109.87;;